createdAt,value
2019-05-11T00:00:11.483Z,9.53
2019-05-11T00:02:40.843Z,10.03
2019-05-11T00:05:10.264Z,11.00
2019-05-11T00:07:39.551Z,10.27
2019-05-11T00:10:08.907Z,10.63
2019-05-11T00:12:38.199Z,11.03
2019-05-11T00:15:07.619Z,10.77
2019-05-11T00:17:36.921Z,10.87
2019-05-11T00:20:09.243Z,10.80
2019-05-11T00:22:38.519Z,10.87
2019-05-11T00:25:08.244Z,11.63
2019-05-11T00:27:37.538Z,11.17
2019-05-11T00:30:07.131Z,11.73
2019-05-11T00:32:36.421Z,11.10
2019-05-11T00:35:07.616Z,11.30
2019-05-11T00:37:36.904Z,11.60
2019-05-11T00:40:14.288Z,11.93
2019-05-11T00:42:38.779Z,11.57
2019-05-11T00:45:08.408Z,12.17
2019-05-11T00:47:37.710Z,11.20
2019-05-11T00:50:10.122Z,10.80
2019-05-11T00:52:39.422Z,12.60
2019-05-11T00:55:08.871Z,12.23
2019-05-11T00:57:38.153Z,11.47
2019-05-11T01:00:09.175Z,11.23
2019-05-11T01:02:38.480Z,11.63
2019-05-11T01:05:08.059Z,11.93
2019-05-11T01:07:37.320Z,11.77
2019-05-11T01:10:23.193Z,11.83
2019-05-11T01:12:39.558Z,12.30
2019-05-11T01:15:09.297Z,12.20
2019-05-11T01:17:38.582Z,10.77
2019-05-11T01:20:08.401Z,12.40
2019-05-11T01:22:37.688Z,11.37
2019-05-11T01:25:07.059Z,12.47
2019-05-11T01:27:36.387Z,11.37
2019-05-11T01:30:06.927Z,12.80
2019-05-11T01:32:36.270Z,12.90
2019-05-11T01:35:08.630Z,13.03
2019-05-11T01:37:37.899Z,12.87
2019-05-11T01:40:08.504Z,12.10
2019-05-11T01:42:37.790Z,11.27
2019-05-11T01:45:07.815Z,12.13
2019-05-11T01:47:37.103Z,12.27
2019-05-11T01:50:06.388Z,12.43
2019-05-11T01:52:35.668Z,11.23
2019-05-11T01:55:05.433Z,11.60
2019-05-11T01:57:34.742Z,11.23
2019-05-11T02:00:06.919Z,10.60
2019-05-11T02:02:36.326Z,9.87
2019-05-11T02:05:24.919Z,9.53
2019-05-11T02:07:54.259Z,8.13
2019-05-11T02:10:23.555Z,8.87
2019-05-11T02:12:53.305Z,8.90
2019-05-11T02:15:22.650Z,8.80
2019-05-11T02:17:52.902Z,9.13
2019-05-11T02:20:22.186Z,8.43
2019-05-11T02:22:51.454Z,8.80
2019-05-11T02:25:20.745Z,8.87
2019-05-11T02:27:50.013Z,8.90
2019-05-11T02:30:19.555Z,8.63
2019-05-11T02:32:48.911Z,9.00
2019-05-11T02:35:18.192Z,8.93
2019-05-11T02:37:47.464Z,8.93
2019-05-11T02:40:17.691Z,9.40
2019-05-11T02:42:46.973Z,9.10
2019-05-11T02:45:19.319Z,9.37
2019-05-11T02:47:48.589Z,8.63
2019-05-11T02:50:17.874Z,9.23
2019-05-11T02:52:48.015Z,8.73
2019-05-11T02:55:17.291Z,9.50
2019-05-11T02:57:46.565Z,9.50
2019-05-11T03:00:19.998Z,9.30
2019-05-11T03:02:49.286Z,9.63
2019-05-11T03:05:18.555Z,8.80
2019-05-11T03:07:47.835Z,9.57
2019-05-11T03:10:17.118Z,9.20
2019-05-11T03:12:46.394Z,8.73
2019-05-11T03:15:15.738Z,9.23
2019-05-11T03:17:45.020Z,9.73
2019-05-11T03:20:14.362Z,9.53
2019-05-11T03:22:43.651Z,10.00
2019-05-11T03:25:13.104Z,11.17
2019-05-11T03:27:42.511Z,12.20
2019-05-11T03:30:11.918Z,11.60
2019-05-11T03:32:41.205Z,12.10
2019-05-11T03:35:10.710Z,10.63
2019-05-11T03:37:39.981Z,10.97
2019-05-11T03:40:10.003Z,10.37
2019-05-11T03:42:39.277Z,10.57
2019-05-11T03:45:08.694Z,10.87
2019-05-11T03:47:38.055Z,11.73
2019-05-11T03:50:07.667Z,11.10
2019-05-11T03:52:36.951Z,11.87
2019-05-11T03:55:07.343Z,10.90
2019-05-11T03:57:36.635Z,12.43
2019-05-11T04:00:07.455Z,11.90
2019-05-11T04:02:36.732Z,11.53
2019-05-11T04:05:06.104Z,12.07
2019-05-11T04:07:35.366Z,12.57
2019-05-11T04:10:06.748Z,11.57
2019-05-11T04:12:36.121Z,12.23
2019-05-11T04:15:06.942Z,11.00
2019-05-11T04:17:36.231Z,12.30
2019-05-11T04:20:06.546Z,11.97
2019-05-11T04:22:35.898Z,12.10
2019-05-11T04:25:06.436Z,13.20
2019-05-11T04:27:36.088Z,13.87
2019-05-11T04:30:07.064Z,14.47
2019-05-11T04:32:36.356Z,12.87
2019-05-11T04:35:06.381Z,14.03
2019-05-11T04:37:35.666Z,13.57
2019-05-11T04:40:05.990Z,13.37
2019-05-11T04:42:53.277Z,13.20
2019-05-11T04:45:07.800Z,12.40
2019-05-11T04:47:37.102Z,13.67
2019-05-11T04:50:07.823Z,13.63
2019-05-11T04:52:37.113Z,13.17
2019-05-11T04:55:06.719Z,13.47
2019-05-11T04:57:36.010Z,13.43
2019-05-11T05:00:07.155Z,13.33
2019-05-11T05:02:36.451Z,14.97
2019-05-11T05:05:06.479Z,14.40
2019-05-11T05:07:35.776Z,14.47
2019-05-11T05:10:06.298Z,14.73
2019-05-11T05:12:35.570Z,16.03
2019-05-11T05:15:06.194Z,15.33
2019-05-11T05:17:35.472Z,15.23
2019-05-11T05:20:08.859Z,15.33
2019-05-11T05:22:38.139Z,15.87
2019-05-11T05:25:07.972Z,14.83
2019-05-11T05:27:37.256Z,14.13
2019-05-11T05:30:07.298Z,15.10
2019-05-11T05:32:36.773Z,14.87
2019-05-11T05:35:06.687Z,15.27
2019-05-11T05:37:36.307Z,14.07
2019-05-11T05:40:05.840Z,14.60
2019-05-11T05:42:35.108Z,13.60
2019-05-11T05:45:06.339Z,13.30
2019-05-11T05:47:35.626Z,13.13
2019-05-11T05:50:06.254Z,13.27
2019-05-11T05:52:35.515Z,13.53
2019-05-11T05:55:05.941Z,13.30
2019-05-11T05:57:35.212Z,13.30
2019-05-11T06:00:05.710Z,13.70
2019-05-11T06:02:34.982Z,13.20
2019-05-11T06:05:08.190Z,13.57
2019-05-11T06:07:38.487Z,13.17
2019-05-11T06:10:08.707Z,12.93
2019-05-11T06:12:37.982Z,13.10
2019-05-11T06:15:07.910Z,12.83
2019-05-11T06:17:37.188Z,12.57
2019-05-11T06:20:07.827Z,12.17
2019-05-11T06:22:37.638Z,12.53
2019-05-11T06:25:07.060Z,12.57
2019-05-11T06:27:36.347Z,11.83
2019-05-11T06:30:09.627Z,11.53
2019-05-11T06:32:38.903Z,11.90
2019-05-11T06:35:08.332Z,11.23
2019-05-11T06:37:37.620Z,10.93
2019-05-11T06:40:09.903Z,10.90
2019-05-11T06:42:39.186Z,10.03
2019-05-11T06:45:09.413Z,10.83
2019-05-11T06:47:38.682Z,10.67
2019-05-11T06:50:08.213Z,10.53
2019-05-11T06:52:37.482Z,10.93
2019-05-11T06:55:07.008Z,9.80
2019-05-11T06:57:36.288Z,10.63
2019-05-11T07:00:06.608Z,10.30
2019-05-11T07:02:35.888Z,10.43
2019-05-11T07:05:07.318Z,9.80
2019-05-11T07:07:47.193Z,11.43
2019-05-11T07:10:08.241Z,9.63
2019-05-11T07:12:37.511Z,10.20
2019-05-11T07:15:07.326Z,10.23
2019-05-11T07:17:36.674Z,9.87
2019-05-11T07:20:07.087Z,10.67
2019-05-11T07:22:36.382Z,9.67
2019-05-11T07:25:06.896Z,10.00
2019-05-11T07:27:36.183Z,10.30
2019-05-11T07:30:07.997Z,9.20
2019-05-11T07:32:38.107Z,10.03
2019-05-11T07:35:08.504Z,9.03
2019-05-11T07:37:38.724Z,9.40
2019-05-11T07:40:08.907Z,9.03
2019-05-11T07:42:39.163Z,10.50
2019-05-11T07:45:10.155Z,10.17
2019-05-11T07:47:39.455Z,10.27
2019-05-11T07:50:08.885Z,10.73
2019-05-11T07:52:38.181Z,10.77
2019-05-11T07:55:08.568Z,11.17
2019-05-11T07:57:39.032Z,9.60
2019-05-11T08:00:09.280Z,10.70
2019-05-11T08:02:38.999Z,9.73
2019-05-11T08:05:09.699Z,8.83
2019-05-11T08:07:38.992Z,9.30
2019-05-11T08:10:09.009Z,10.00
2019-05-11T08:12:39.116Z,9.50
2019-05-11T08:15:13.605Z,11.77
2019-05-11T08:17:40.955Z,12.90
2019-05-11T08:20:11.100Z,13.43
2019-05-11T08:22:40.396Z,13.67
2019-05-11T08:25:09.809Z,15.23
2019-05-11T08:27:39.166Z,15.03
2019-05-11T08:30:11.523Z,16.07
2019-05-11T08:32:40.820Z,16.50
2019-05-11T08:35:10.455Z,17.90
2019-05-11T08:37:39.751Z,18.37
2019-05-11T08:40:09.099Z,18.37
2019-05-11T08:42:39.465Z,19.83
2019-05-11T08:45:18.956Z,18.90
2019-05-11T08:47:40.542Z,19.33
2019-05-11T08:50:10.405Z,19.63
2019-05-11T08:52:39.723Z,20.03
2019-05-11T08:55:10.636Z,18.83
2019-05-11T08:57:39.923Z,18.37
2019-05-11T09:00:13.470Z,17.50
2019-05-11T09:02:46.589Z,16.47
2019-05-11T09:05:14.251Z,16.60
2019-05-11T09:07:43.547Z,16.77
2019-05-11T09:10:13.063Z,15.63
2019-05-11T09:12:43.573Z,14.80
2019-05-11T09:15:28.956Z,14.50
2019-05-11T09:17:44.295Z,14.73
2019-05-11T09:20:13.828Z,16.30
2019-05-11T09:22:43.138Z,18.13
2019-05-11T09:25:12.762Z,20.20
2019-05-11T09:27:43.529Z,21.63
2019-05-11T09:30:14.167Z,21.83
2019-05-11T09:32:43.511Z,23.93
2019-05-11T09:35:12.811Z,26.37
2019-05-11T09:37:42.091Z,26.77
2019-05-11T09:40:11.555Z,26.47
2019-05-11T09:42:40.866Z,26.73
2019-05-11T09:45:10.427Z,29.30
2019-05-11T09:47:39.710Z,32.97
2019-05-11T09:50:09.079Z,35.40
2019-05-11T09:52:38.666Z,34.97
2019-05-11T09:55:09.486Z,34.90
2019-05-11T09:57:38.887Z,35.57
2019-05-11T10:00:09.564Z,40.70
2019-05-11T10:02:38.909Z,40.73
2019-05-11T10:05:08.648Z,44.30
2019-05-11T10:07:38.325Z,44.63
2019-05-11T10:10:09.483Z,44.60
2019-05-11T10:12:38.836Z,45.33
2019-05-11T10:15:08.784Z,43.17
2019-05-11T10:17:38.465Z,42.83
2019-05-11T10:20:09.321Z,42.70
2019-05-11T10:22:38.945Z,41.10
2019-05-11T10:25:09.083Z,39.63
2019-05-11T10:27:38.675Z,40.20
2019-05-11T10:30:08.419Z,37.70
2019-05-11T10:32:38.145Z,36.17
2019-05-11T10:35:08.292Z,35.70
2019-05-11T10:37:39.129Z,34.00
2019-05-11T10:40:10.203Z,33.93
2019-05-11T10:42:39.550Z,32.83
2019-05-11T10:45:09.283Z,31.73
2019-05-11T10:47:39.725Z,30.80
2019-05-11T10:50:09.478Z,29.60
2019-05-11T10:52:38.763Z,27.37
2019-05-11T10:55:08.784Z,27.00
2019-05-11T10:57:38.831Z,25.70
2019-05-11T11:00:09.314Z,25.90
2019-05-11T11:02:38.686Z,24.83
2019-05-11T11:05:09.435Z,23.37
2019-05-11T11:07:38.758Z,23.37
2019-05-11T11:10:09.037Z,21.57
2019-05-11T11:12:38.774Z,22.97
2019-05-11T11:15:09.987Z,21.27
2019-05-11T11:17:39.364Z,20.30
2019-05-11T11:20:08.987Z,20.00
2019-05-11T11:22:43.637Z,18.47
2019-05-11T11:25:09.826Z,16.47
2019-05-11T11:27:39.110Z,16.97
2019-05-11T11:30:09.306Z,16.60
2019-05-11T11:32:39.765Z,15.83
2019-05-11T11:35:10.391Z,14.80
2019-05-11T11:37:39.760Z,14.33
2019-05-11T11:40:09.478Z,13.53
2019-05-11T11:42:38.910Z,15.13
2019-05-11T11:45:10.906Z,14.87
2019-05-11T11:47:41.271Z,14.83
2019-05-11T11:50:10.804Z,13.90
2019-05-11T11:52:40.093Z,13.73
2019-05-11T11:55:21.287Z,12.60
2019-05-11T11:57:50.616Z,13.23
2019-05-11T12:00:19.991Z,13.60
2019-05-11T12:02:49.350Z,13.43
2019-05-11T12:05:18.699Z,13.10
2019-05-11T12:07:49.030Z,12.87
2019-05-11T12:10:18.737Z,12.67
2019-05-11T12:12:48.073Z,12.23
2019-05-11T12:15:17.908Z,11.73
2019-05-11T12:17:48.294Z,10.80
2019-05-11T12:20:18.206Z,11.03
2019-05-11T12:22:47.765Z,10.47
2019-05-11T12:25:18.488Z,10.80
2019-05-11T12:27:49.096Z,10.33
2019-05-11T12:30:19.252Z,9.60
2019-05-11T12:32:50.121Z,8.83
2019-05-11T12:35:19.530Z,9.30
2019-05-11T12:37:48.823Z,10.63
2019-05-11T12:40:18.442Z,9.90
2019-05-11T12:42:48.868Z,10.10
2019-05-11T12:45:19.142Z,9.77
2019-05-11T12:47:48.512Z,9.40
2019-05-11T12:50:19.872Z,10.40
2019-05-11T12:52:49.175Z,9.73
2019-05-11T12:55:18.704Z,10.07
2019-05-11T12:57:48.212Z,10.00
2019-05-11T13:00:18.315Z,9.80
2019-05-11T13:02:48.452Z,9.23
2019-05-11T13:05:18.539Z,10.20
2019-05-11T13:07:48.368Z,9.70
2019-05-11T13:10:18.215Z,9.17
2019-05-11T13:12:49.250Z,9.73
2019-05-11T13:15:19.314Z,9.67
2019-05-11T13:17:49.265Z,9.40
2019-05-11T13:20:18.745Z,8.60
2019-05-11T13:22:48.880Z,8.90
2019-05-11T13:25:18.493Z,10.17
2019-05-11T13:27:49.222Z,8.53
2019-05-11T13:30:19.000Z,9.60
2019-05-11T13:32:48.968Z,10.17
2019-05-11T13:35:18.664Z,10.27
2019-05-11T13:37:48.162Z,10.47
2019-05-11T13:40:18.396Z,10.43
2019-05-11T13:42:49.008Z,11.33
2019-05-11T13:45:18.545Z,11.40
2019-05-11T13:47:55.195Z,10.33
2019-05-11T13:50:18.819Z,10.80
2019-05-11T13:52:48.113Z,9.77
2019-05-11T13:55:18.184Z,9.77
2019-05-11T13:57:48.560Z,8.57
2019-05-11T14:00:18.521Z,9.30
2019-05-11T14:02:48.621Z,8.70
2019-05-11T14:05:18.241Z,9.40
2019-05-11T14:07:48.288Z,8.50
2019-05-11T14:10:18.327Z,8.47
2019-05-11T14:12:47.938Z,7.50
2019-05-11T14:15:18.893Z,8.43
2019-05-11T14:18:04.407Z,7.70
2019-05-11T14:20:22.265Z,7.17
2019-05-11T14:22:51.530Z,7.27
2019-05-11T14:25:20.837Z,6.50
2019-05-11T14:27:50.112Z,6.77
2019-05-11T14:30:20.245Z,6.40
2019-05-11T14:32:49.590Z,6.80
2019-05-11T14:35:19.126Z,6.23
2019-05-11T14:37:48.760Z,5.90
2019-05-11T14:40:18.203Z,5.80
2019-05-11T14:42:49.012Z,5.60
2019-05-11T14:45:18.992Z,5.30
2019-05-11T14:47:48.584Z,5.23
2019-05-11T14:50:18.843Z,5.20
2019-05-11T14:52:49.242Z,5.77
2019-05-11T14:55:19.701Z,4.60
2019-05-11T14:57:49.004Z,4.70
2019-05-11T15:00:18.770Z,4.73
2019-05-11T15:02:49.610Z,4.73
2019-05-11T15:05:21.535Z,4.53
2019-05-11T15:07:52.770Z,4.60
2019-05-11T15:10:22.083Z,4.57
2019-05-11T15:12:51.371Z,4.00
2019-05-11T15:15:20.728Z,3.63
2019-05-11T15:17:50.035Z,4.27
2019-05-11T15:20:19.444Z,4.27
2019-05-11T15:22:49.117Z,4.00
2019-05-11T15:25:19.970Z,4.23
2019-05-11T15:27:49.578Z,4.33
2019-05-11T15:30:19.395Z,4.00
2019-05-11T15:32:48.695Z,4.23
2019-05-11T15:35:18.758Z,4.27
2019-05-11T15:37:48.419Z,4.30
2019-05-11T15:40:19.050Z,4.13
2019-05-11T15:42:48.838Z,4.30
2019-05-11T15:45:19.051Z,4.50
2019-05-11T15:47:48.876Z,4.73
2019-05-11T15:50:19.303Z,4.83
2019-05-11T15:52:49.108Z,4.70
2019-05-11T15:55:20.279Z,5.30
2019-05-11T15:57:50.552Z,4.20
2019-05-11T16:00:20.158Z,4.53
2019-05-11T16:02:49.515Z,4.50
2019-05-11T16:05:19.828Z,4.90
2019-05-11T16:07:49.468Z,4.63
2019-05-11T16:10:19.926Z,4.47
2019-05-11T16:12:49.305Z,4.83
2019-05-11T16:15:20.014Z,4.50
2019-05-11T16:17:49.861Z,4.87
2019-05-11T16:20:19.460Z,4.80
2019-05-11T16:22:48.758Z,4.80
2019-05-11T16:25:19.856Z,5.00
2019-05-11T16:27:49.074Z,4.83
2019-05-11T16:30:21.632Z,4.90
2019-05-11T16:32:50.536Z,4.67
2019-05-11T16:35:19.959Z,4.73
2019-05-11T16:37:49.255Z,5.33
2019-05-11T16:40:20.784Z,5.00
2019-05-11T16:42:49.890Z,5.20
2019-05-11T16:45:19.498Z,5.00
2019-05-11T16:47:50.124Z,5.30
2019-05-11T16:50:19.462Z,4.87
2019-05-11T16:52:48.748Z,5.80
2019-05-11T16:55:18.600Z,5.07
2019-05-11T16:57:48.757Z,5.23
2019-05-11T17:00:19.043Z,5.00
2019-05-11T17:02:49.152Z,5.17
2019-05-11T17:05:26.628Z,6.03
2019-05-11T17:07:49.964Z,5.73
2019-05-11T17:10:19.393Z,5.60
2019-05-11T17:12:49.037Z,5.57
2019-05-11T17:15:19.057Z,5.63
2019-05-11T17:17:49.263Z,5.17
2019-05-11T17:20:19.172Z,5.50
2019-05-11T17:22:49.133Z,5.33
2019-05-11T17:25:19.795Z,5.57
2019-05-11T17:27:50.140Z,5.33
2019-05-11T17:30:19.999Z,5.20
2019-05-11T17:32:49.827Z,5.47
2019-05-11T17:35:19.526Z,5.17
2019-05-11T17:37:49.026Z,4.40
2019-05-11T17:40:23.116Z,4.80
2019-05-11T17:42:53.553Z,5.13
2019-05-11T17:45:21.201Z,4.90
2019-05-11T17:47:50.538Z,4.67
2019-05-11T17:50:19.888Z,3.97
2019-05-11T17:52:49.183Z,4.47
2019-05-11T17:55:18.804Z,4.53
2019-05-11T17:57:49.171Z,5.03
2019-05-11T18:00:20.320Z,4.87
2019-05-11T18:02:49.732Z,4.73
2019-05-11T18:05:20.195Z,5.50
2019-05-11T18:07:49.477Z,4.30
2019-05-11T18:10:19.822Z,4.50
2019-05-11T18:12:49.111Z,5.30
2019-05-11T18:15:19.437Z,5.23
2019-05-11T18:17:49.060Z,4.20
2019-05-11T18:20:21.963Z,4.37
2019-05-11T18:22:50.938Z,4.40
2019-05-11T18:25:20.471Z,4.67
2019-05-11T18:27:49.926Z,4.60
2019-05-11T18:30:19.291Z,4.17
2019-05-11T18:32:49.250Z,3.90
2019-05-11T18:35:19.922Z,4.73
2019-05-11T18:37:49.612Z,4.00
2019-05-11T18:40:19.148Z,3.77
2019-05-11T18:42:48.981Z,3.77
2019-05-11T18:45:19.096Z,3.70
2019-05-11T18:47:49.238Z,2.67
2019-05-11T18:50:29.766Z,2.60
2019-05-11T18:52:49.771Z,2.20
2019-05-11T18:55:19.270Z,2.37
2019-05-11T18:57:49.327Z,2.57
2019-05-11T19:00:18.882Z,1.90
2019-05-11T19:02:49.484Z,2.10
2019-05-11T19:05:20.126Z,1.80
2019-05-11T19:07:49.431Z,1.97
2019-05-11T19:10:18.714Z,2.17
2019-05-11T19:12:49.213Z,1.83
2019-05-11T19:15:19.253Z,2.20
2019-05-11T19:17:49.334Z,1.70
2019-05-11T19:20:19.984Z,2.10
2019-05-11T19:22:49.278Z,2.27
2019-05-11T19:25:19.667Z,2.03
2019-05-11T19:27:50.794Z,2.27
2019-05-11T19:30:20.367Z,8.20
2019-05-11T19:32:49.722Z,1.60
2019-05-11T19:35:20.996Z,1.90
2019-05-11T19:37:50.563Z,2.13
2019-05-11T19:40:19.839Z,2.37
2019-05-11T19:42:58.724Z,2.20
2019-05-11T19:45:29.365Z,2.40
2019-05-11T19:47:58.975Z,2.13
2019-05-11T19:50:28.352Z,2.50
2019-05-11T19:52:58.090Z,2.53
2019-05-11T19:55:28.739Z,2.20
2019-05-11T19:57:58.185Z,2.70
2019-05-11T20:00:27.475Z,2.37
2019-05-11T20:02:58.578Z,2.50
2019-05-11T20:05:28.754Z,2.50
2019-05-11T20:07:58.746Z,1.97
2019-05-11T20:10:30.277Z,2.33
2019-05-11T20:12:59.691Z,2.10
2019-05-11T20:15:29.563Z,2.10
2019-05-11T20:17:59.027Z,2.13
2019-05-11T20:20:28.607Z,2.30
2019-05-11T20:22:58.701Z,2.00
2019-05-11T20:25:28.865Z,2.00
2019-05-11T20:27:58.668Z,2.10
2019-05-11T20:30:28.214Z,1.60
2019-05-11T20:32:57.501Z,2.47
2019-05-11T20:35:27.990Z,2.00
2019-05-11T20:37:58.116Z,1.80
2019-05-11T20:40:28.549Z,1.77
2019-05-11T20:42:58.698Z,2.00
2019-05-11T20:45:29.198Z,1.97
2019-05-11T20:47:58.487Z,1.87
2019-05-11T20:50:27.803Z,2.27
2019-05-11T20:52:58.212Z,2.00
2019-05-11T20:55:28.450Z,1.70
2019-05-11T20:57:58.512Z,2.00
2019-05-11T21:00:28.977Z,2.10
2019-05-11T21:02:58.899Z,1.97
2019-05-11T21:05:29.006Z,2.73
2019-05-11T21:07:58.291Z,1.97
2019-05-11T21:10:28.080Z,1.93
2019-05-11T21:12:57.880Z,2.10
2019-05-11T21:15:28.070Z,2.13
2019-05-11T21:17:58.574Z,2.30
2019-05-11T21:20:28.714Z,1.83
2019-05-11T21:22:58.500Z,2.53
2019-05-11T21:25:28.730Z,2.00
2019-05-11T21:27:59.546Z,2.10
2019-05-11T21:30:28.895Z,2.53
2019-05-11T21:32:58.387Z,2.17
2019-05-11T21:35:28.076Z,2.10
2019-05-11T21:37:58.114Z,2.30
2019-05-11T21:40:29.068Z,2.20
2019-05-11T21:42:58.421Z,2.13
2019-05-11T21:45:28.369Z,2.10
2019-05-11T21:47:58.185Z,1.70
2019-05-11T21:50:28.058Z,2.40
2019-05-11T21:52:58.950Z,2.10
2019-05-11T21:55:29.233Z,2.20
2019-05-11T21:57:58.874Z,2.10
2019-05-11T22:00:30.567Z,2.20
2019-05-11T22:03:01.572Z,2.00
2019-05-11T22:05:30.862Z,2.43
2019-05-11T22:08:00.131Z,2.17
2019-05-11T22:10:29.456Z,2.30
2019-05-11T22:12:58.856Z,2.20
2019-05-11T22:15:28.475Z,2.63
2019-05-11T22:17:59.099Z,2.00
2019-05-11T22:20:28.812Z,2.70
2019-05-11T22:22:58.352Z,2.20
2019-05-11T22:25:28.711Z,2.27
2019-05-11T22:27:58.240Z,2.20
2019-05-11T22:30:27.947Z,2.43
2019-05-11T22:32:58.294Z,2.30
2019-05-11T22:35:28.696Z,2.43
2019-05-11T22:37:58.181Z,2.10
2019-05-11T22:40:27.983Z,2.07
2019-05-11T22:42:58.330Z,2.17
2019-05-11T22:45:28.704Z,2.07
2019-05-11T22:47:58.546Z,2.40
2019-05-11T22:50:29.047Z,1.97
2019-05-11T22:52:59.570Z,2.43
2019-05-11T22:55:28.857Z,2.37
2019-05-11T22:57:58.195Z,2.07
2019-05-11T23:00:41.544Z,2.00
2019-05-11T23:03:11.274Z,2.20
2019-05-11T23:05:41.557Z,2.30
2019-05-11T23:08:10.839Z,1.83
2019-05-11T23:10:40.107Z,2.40
2019-05-11T23:13:11.414Z,2.73
2019-05-11T23:15:40.700Z,2.50
2019-05-11T23:18:09.959Z,2.10
2019-05-11T23:20:39.247Z,2.23
2019-05-11T23:23:09.077Z,2.10
2019-05-11T23:25:38.506Z,2.23
2019-05-11T23:28:07.789Z,2.43
2019-05-11T23:30:38.874Z,2.70
2019-05-11T23:33:08.098Z,3.37
2019-05-11T23:35:38.254Z,2.73
2019-05-11T23:38:07.819Z,2.53
2019-05-11T23:40:38.006Z,2.37
2019-05-11T23:43:08.658Z,2.17
2019-05-11T23:45:38.409Z,2.20
2019-05-11T23:48:08.922Z,2.63
2019-05-11T23:50:38.835Z,2.70
2019-05-11T23:53:10.269Z,2.07
2019-05-11T23:55:40.162Z,3.10
2019-05-11T23:58:09.527Z,2.80
